createdAt,value
2022-11-20T00:00:57.403Z,6.83
2022-11-20T00:03:27.190Z,6.85
2022-11-20T00:05:55.192Z,6.90
2022-11-20T00:08:23.175Z,6.93
2022-11-20T00:10:51.244Z,6.95
2022-11-20T00:13:19.235Z,6.96
2022-11-20T00:15:47.268Z,6.98
2022-11-20T00:18:15.349Z,7.00
2022-11-20T00:20:44.700Z,6.96
2022-11-20T00:23:12.729Z,6.93
2022-11-20T00:25:40.751Z,6.91
2022-11-20T00:28:08.760Z,6.94
2022-11-20T00:30:36.795Z,6.99
2022-11-20T00:33:04.960Z,6.99
2022-11-20T00:35:32.986Z,7.02
2022-11-20T00:38:02.359Z,7.05
2022-11-20T00:40:30.382Z,7.02
2022-11-20T00:42:58.426Z,7.01
2022-11-20T00:45:26.432Z,7.04
2022-11-20T00:47:54.466Z,7.10
2022-11-20T00:50:22.516Z,7.14
2022-11-20T00:52:50.608Z,7.18
2022-11-20T00:55:19.976Z,7.20
2022-11-20T00:57:47.981Z,7.24
2022-11-20T01:00:16.484Z,7.26
2022-11-20T01:02:44.475Z,7.27
2022-11-20T01:05:12.514Z,7.27
2022-11-20T01:07:40.549Z,7.27
2022-11-20T01:10:09.469Z,7.27
2022-11-20T01:12:38.865Z,7.27
2022-11-20T01:15:07.713Z,7.27
2022-11-20T01:17:35.717Z,7.25
2022-11-20T01:20:03.806Z,7.26
2022-11-20T01:22:31.790Z,7.31
2022-11-20T01:24:59.777Z,7.34
2022-11-20T01:27:27.787Z,7.39
2022-11-20T01:30:01.085Z,7.39
2022-11-20T01:32:29.540Z,7.40
2022-11-20T01:34:57.497Z,7.43
2022-11-20T01:37:25.588Z,7.45
2022-11-20T01:39:53.566Z,7.46
2022-11-20T01:42:39.036Z,7.48
2022-11-20T01:45:40.540Z,7.44
2022-11-20T01:48:10.133Z,7.31
2022-11-20T01:50:38.133Z,7.23
2022-11-20T01:53:10.075Z,7.19
2022-11-20T01:55:41.884Z,7.16
2022-11-20T01:58:10.889Z,7.19
2022-11-20T02:00:38.918Z,7.25
2022-11-20T02:03:13.316Z,7.23
2022-11-20T02:05:47.335Z,7.28
2022-11-20T02:08:15.943Z,7.35
2022-11-20T02:10:43.948Z,7.39
2022-11-20T02:13:29.676Z,7.39
2022-11-20T02:15:57.845Z,7.38
2022-11-20T02:18:27.936Z,7.34
2022-11-20T02:21:01.213Z,7.31
2022-11-20T02:23:35.458Z,7.13
2022-11-20T02:26:07.973Z,7.13
2022-11-20T02:28:36.033Z,7.12
2022-11-20T02:31:04.059Z,7.12
2022-11-20T02:33:32.177Z,7.18
2022-11-20T02:36:00.220Z,7.27
2022-11-20T02:38:28.383Z,7.24
2022-11-20T02:40:56.427Z,7.24
2022-11-20T02:43:25.916Z,7.23
2022-11-20T02:45:53.928Z,7.17
2022-11-20T02:48:24.549Z,7.15
2022-11-20T02:50:53.369Z,7.17
2022-11-20T02:53:21.367Z,7.20
2022-11-20T02:55:49.364Z,7.16
2022-11-20T02:58:17.344Z,7.16
2022-11-20T03:00:47.186Z,7.19
2022-11-20T03:03:15.198Z,7.15
2022-11-20T03:05:43.224Z,7.12
2022-11-20T03:08:11.220Z,7.08
2022-11-20T03:10:39.203Z,7.13
2022-11-20T03:13:07.314Z,7.18
2022-11-20T03:15:35.346Z,7.19
2022-11-20T03:18:04.893Z,7.15
2022-11-20T03:20:35.048Z,7.12
2022-11-20T03:23:03.653Z,7.07
2022-11-20T03:25:31.641Z,7.09
2022-11-20T03:27:59.694Z,7.11
2022-11-20T03:30:30.766Z,7.07
2022-11-20T03:32:59.260Z,7.02
2022-11-20T03:35:28.667Z,6.98
2022-11-20T03:37:56.650Z,6.95
2022-11-20T03:40:24.629Z,6.86
2022-11-20T03:42:52.643Z,6.83
2022-11-20T03:45:21.172Z,6.87
2022-11-20T03:47:49.224Z,6.93
2022-11-20T03:50:17.349Z,6.88
2022-11-20T03:52:46.717Z,6.84
2022-11-20T03:55:14.692Z,6.83
2022-11-20T03:57:42.739Z,6.85
2022-11-20T04:00:11.985Z,6.85
2022-11-20T04:02:39.968Z,6.78
2022-11-20T04:05:08.794Z,6.78
2022-11-20T04:07:37.344Z,6.79
2022-11-20T04:10:07.717Z,6.76
2022-11-20T04:12:35.813Z,6.74
2022-11-20T04:15:04.010Z,6.72
2022-11-20T04:17:31.991Z,6.74
2022-11-20T04:19:59.977Z,6.70
2022-11-20T04:22:27.996Z,6.70
2022-11-20T04:24:56.008Z,6.71
2022-11-20T04:27:25.401Z,6.82
2022-11-20T04:29:53.413Z,6.85
2022-11-20T04:32:21.491Z,6.83
2022-11-20T04:34:49.507Z,6.84
2022-11-20T04:37:17.515Z,6.86
2022-11-20T04:39:45.736Z,6.91
2022-11-20T04:42:31.542Z,6.89
2022-11-20T04:45:00.905Z,6.87
2022-11-20T04:47:28.892Z,6.84
2022-11-20T04:49:57.057Z,6.76
2022-11-20T04:52:25.159Z,6.75
2022-11-20T04:54:54.424Z,6.76
2022-11-20T04:57:22.477Z,6.79
2022-11-20T04:59:50.487Z,6.81
2022-11-20T05:02:20.177Z,6.84
2022-11-20T05:04:48.273Z,6.86
2022-11-20T05:07:16.308Z,6.87
2022-11-20T05:09:44.430Z,6.88
2022-11-20T05:12:12.655Z,6.85
2022-11-20T05:14:40.625Z,6.87
2022-11-20T05:17:11.620Z,6.90
2022-11-20T05:19:41.177Z,6.96
2022-11-20T05:22:09.193Z,6.96
2022-11-20T05:24:37.169Z,6.97
2022-11-20T05:27:05.416Z,6.96
2022-11-20T05:29:33.386Z,6.98
2022-11-20T05:32:01.487Z,6.98
2022-11-20T05:34:29.530Z,6.96
2022-11-20T05:36:58.900Z,6.90
2022-11-20T05:39:26.902Z,6.88
2022-11-20T05:42:21.474Z,6.87
2022-11-20T05:44:49.549Z,6.91
2022-11-20T05:47:17.502Z,6.93
2022-11-20T05:49:45.779Z,6.90
2022-11-20T05:52:15.216Z,6.94
2022-11-20T05:54:43.377Z,6.88
2022-11-20T05:57:11.336Z,6.83
2022-11-20T05:59:39.395Z,6.81
2022-11-20T06:02:07.551Z,6.80
2022-11-20T06:04:35.551Z,6.83
2022-11-20T06:07:03.679Z,6.76
2022-11-20T06:09:33.186Z,6.79
2022-11-20T06:12:01.185Z,6.83
2022-11-20T06:14:29.248Z,6.86
2022-11-20T06:16:57.278Z,6.83
2022-11-20T06:19:25.428Z,6.81
2022-11-20T06:21:53.487Z,6.82
2022-11-20T06:24:21.474Z,6.83
2022-11-20T06:26:50.904Z,6.85
2022-11-20T06:29:19.157Z,6.83
2022-11-20T06:31:47.301Z,6.89
2022-11-20T06:34:15.353Z,6.93
2022-11-20T06:36:43.348Z,6.94
2022-11-20T06:39:11.601Z,6.97
2022-11-20T06:41:39.627Z,6.97
2022-11-20T06:44:09.003Z,7.00
2022-11-20T06:46:37.029Z,7.02
2022-11-20T06:49:05.062Z,7.01
2022-11-20T06:51:33.100Z,6.98
2022-11-20T06:54:01.933Z,6.90
2022-11-20T06:56:30.076Z,6.84
2022-11-20T06:58:58.087Z,6.81
2022-11-20T07:01:27.509Z,6.76
2022-11-20T07:03:56.045Z,6.73
2022-11-20T07:06:24.072Z,6.74
2022-11-20T07:08:53.782Z,6.81
2022-11-20T07:11:21.882Z,6.85
2022-11-20T07:13:49.888Z,6.87
2022-11-20T07:16:18.121Z,6.88
2022-11-20T07:18:50.415Z,6.86
2022-11-20T07:21:19.111Z,6.85
2022-11-20T07:23:47.093Z,6.83
2022-11-20T07:26:15.056Z,6.82
2022-11-20T07:28:46.646Z,6.73
2022-11-20T07:31:18.831Z,6.69
2022-11-20T07:33:49.075Z,6.63
2022-11-20T07:36:17.104Z,6.67
2022-11-20T07:38:45.100Z,6.70
2022-11-20T07:41:13.119Z,6.63
2022-11-20T07:43:41.775Z,6.71
2022-11-20T07:46:10.121Z,6.76
2022-11-20T07:48:38.203Z,6.86
2022-11-20T07:51:07.642Z,6.84
2022-11-20T07:53:35.673Z,6.73
2022-11-20T07:56:04.117Z,6.70
2022-11-20T07:58:33.964Z,6.73
2022-11-20T08:01:05.199Z,6.87
2022-11-20T08:03:33.391Z,6.99
2022-11-20T08:06:01.864Z,7.05
2022-11-20T08:08:33.842Z,7.12
2022-11-20T08:11:16.434Z,7.13
2022-11-20T08:14:01.644Z,7.12
2022-11-20T08:16:29.880Z,7.13
2022-11-20T08:18:58.364Z,7.17
2022-11-20T08:21:26.368Z,7.25
2022-11-20T08:23:55.748Z,7.33
2022-11-20T08:26:24.314Z,7.31
2022-11-20T08:28:56.272Z,7.28
2022-11-20T08:31:24.943Z,7.17
2022-11-20T08:33:53.247Z,7.25
2022-11-20T08:36:22.130Z,7.33
2022-11-20T08:38:50.759Z,7.34
2022-11-20T08:41:26.750Z,7.39
2022-11-20T08:43:59.525Z,7.38
2022-11-20T08:46:29.640Z,7.37
2022-11-20T08:48:57.721Z,7.43
2022-11-20T08:51:25.747Z,7.49
2022-11-20T08:53:53.717Z,7.60
2022-11-20T08:56:23.123Z,7.68
2022-11-20T08:59:20.247Z,7.76
2022-11-20T09:01:40.601Z,7.85
2022-11-20T09:04:08.840Z,7.94
2022-11-20T09:06:36.845Z,7.96
2022-11-20T09:09:06.872Z,7.99
2022-11-20T09:11:37.352Z,8.03
2022-11-20T09:14:05.581Z,8.06
2022-11-20T09:16:33.597Z,8.01
2022-11-20T09:19:33.586Z,7.98
2022-11-20T09:21:49.915Z,7.74
2022-11-20T09:24:17.969Z,7.71
2022-11-20T09:26:47.326Z,7.86
2022-11-20T09:29:15.339Z,7.91
2022-11-20T09:31:43.349Z,8.04
2022-11-20T09:34:11.369Z,8.09
2022-11-20T09:36:39.366Z,8.16
2022-11-20T09:39:07.334Z,8.06
2022-11-20T09:42:12.381Z,8.05
2022-11-20T09:44:54.213Z,8.14
2022-11-20T09:47:32.993Z,8.21
2022-11-20T09:50:14.427Z,8.27
2022-11-20T09:52:52.068Z,8.28
2022-11-20T09:55:20.489Z,8.37
2022-11-20T09:57:53.027Z,8.34
2022-11-20T10:00:22.268Z,8.34
2022-11-20T10:02:57.204Z,8.37
2022-11-20T10:05:29.984Z,8.48
2022-11-20T10:08:10.012Z,8.44
2022-11-20T10:10:45.736Z,8.34
2022-11-20T10:13:29.094Z,8.42
2022-11-20T10:16:10.554Z,8.47
2022-11-20T10:18:53.595Z,8.46
2022-11-20T10:21:33.944Z,8.32
2022-11-20T10:24:32.580Z,8.26
2022-11-20T10:27:07.693Z,8.21
2022-11-20T10:29:39.994Z,8.30
2022-11-20T10:32:16.003Z,8.32
2022-11-20T10:34:52.914Z,8.47
2022-11-20T10:37:25.240Z,8.52
2022-11-20T10:39:58.846Z,8.59
2022-11-20T10:42:34.117Z,8.61
2022-11-20T10:45:15.688Z,8.65
2022-11-20T10:47:43.728Z,8.64
2022-11-20T10:50:21.685Z,8.61
2022-11-20T10:52:58.144Z,8.66
2022-11-20T10:55:32.412Z,8.74
2022-11-20T10:58:08.080Z,8.60
2022-11-20T11:00:37.505Z,8.55
2022-11-20T11:03:24.656Z,8.52
2022-11-20T11:05:56.948Z,8.53
2022-11-20T11:08:28.560Z,8.50
2022-11-20T11:10:59.772Z,8.73
2022-11-20T11:13:29.344Z,8.81
2022-11-20T11:15:59.308Z,8.68
2022-11-20T11:18:29.474Z,8.64
2022-11-20T11:20:58.668Z,8.85
2022-11-20T11:23:35.409Z,8.94
2022-11-20T11:26:05.316Z,8.97
2022-11-20T11:28:33.580Z,9.03
2022-11-20T11:31:02.968Z,9.14
2022-11-20T11:33:34.598Z,9.30
2022-11-20T11:36:05.670Z,9.30
2022-11-20T11:38:37.482Z,9.38
2022-11-20T11:41:07.200Z,9.51
2022-11-20T11:43:54.414Z,9.71
2022-11-20T11:46:34.029Z,9.89
2022-11-20T11:49:04.051Z,9.92
2022-11-20T11:51:40.002Z,9.97
2022-11-20T11:54:19.009Z,9.99
2022-11-20T11:56:48.087Z,9.81
2022-11-20T11:59:24.496Z,9.76
2022-11-20T12:01:59.114Z,9.74
2022-11-20T12:04:42.488Z,9.83
2022-11-20T12:07:44.726Z,9.99
2022-11-20T12:10:08.136Z,10.01
2022-11-20T12:12:41.947Z,9.88
2022-11-20T12:15:13.066Z,9.84
2022-11-20T12:17:42.488Z,9.83
2022-11-20T12:20:15.921Z,9.77
2022-11-20T12:22:53.852Z,9.82
2022-11-20T12:25:26.352Z,9.77
2022-11-20T12:28:30.271Z,9.69
2022-11-20T12:31:21.492Z,9.62
2022-11-20T12:34:13.344Z,9.59
2022-11-20T12:36:47.369Z,9.52
2022-11-20T12:39:32.271Z,9.50
2022-11-20T12:42:38.380Z,9.44
2022-11-20T12:45:25.125Z,9.29
2022-11-20T12:48:21.255Z,9.32
2022-11-20T12:51:14.942Z,9.38
2022-11-20T12:53:51.262Z,9.51
2022-11-20T12:56:32.767Z,9.49
2022-11-20T12:59:15.766Z,9.60
2022-11-20T13:01:51.453Z,9.69
2022-11-20T13:04:36.134Z,9.89
2022-11-20T13:07:08.563Z,10.03
2022-11-20T13:09:41.417Z,9.97
2022-11-20T13:12:16.264Z,9.85
2022-11-20T13:14:50.643Z,9.88
2022-11-20T13:17:24.773Z,9.94
2022-11-20T13:19:55.486Z,9.96
2022-11-20T13:22:29.505Z,9.98
2022-11-20T13:24:57.784Z,10.00
2022-11-20T13:27:26.297Z,10.00
2022-11-20T13:30:16.408Z,9.99
2022-11-20T13:32:51.797Z,10.01
2022-11-20T13:35:28.945Z,9.83
2022-11-20T13:38:10.721Z,9.74
2022-11-20T13:40:40.789Z,9.74
2022-11-20T13:43:23.830Z,9.71
2022-11-20T13:46:02.888Z,9.66
2022-11-20T13:48:34.329Z,9.68
2022-11-20T13:51:11.768Z,9.68
2022-11-20T13:54:13.443Z,9.76
2022-11-20T13:56:53.762Z,9.74
2022-11-20T13:59:42.389Z,9.71
2022-11-20T14:02:15.083Z,9.68
2022-11-20T14:04:47.887Z,9.62
2022-11-20T14:07:16.572Z,9.62
2022-11-20T14:09:55.408Z,9.42
2022-11-20T14:12:29.172Z,9.25
2022-11-20T14:14:57.406Z,9.23
2022-11-20T14:17:31.283Z,9.19
2022-11-20T14:20:03.547Z,9.20
2022-11-20T14:22:31.989Z,9.25
2022-11-20T14:25:08.142Z,9.29
2022-11-20T14:27:39.576Z,9.30
2022-11-20T14:30:08.860Z,9.24
2022-11-20T14:32:38.394Z,9.25
2022-11-20T14:35:11.511Z,9.22
2022-11-20T14:37:41.209Z,9.19
2022-11-20T14:43:04.089Z,9.16
2022-11-20T14:45:33.073Z,9.06
2022-11-20T14:48:02.333Z,8.81
2022-11-20T14:50:31.695Z,8.66
2022-11-20T14:53:01.809Z,8.66
2022-11-20T14:55:32.608Z,8.63
2022-11-20T14:58:04.270Z,8.56
2022-11-20T15:00:33.963Z,8.47
2022-11-20T15:03:02.535Z,8.44
2022-11-20T15:05:50.109Z,8.41
2022-11-20T15:08:19.093Z,8.35
2022-11-20T15:10:49.423Z,8.33
2022-11-20T15:13:27.218Z,8.20
2022-11-20T15:15:57.717Z,8.18
2022-11-20T15:18:39.213Z,8.24
2022-11-20T15:21:12.914Z,8.26
2022-11-20T15:23:41.237Z,8.11
2022-11-20T15:26:19.524Z,8.12
2022-11-20T15:28:51.307Z,8.16
2022-11-20T15:31:21.518Z,8.21
2022-11-20T15:33:50.090Z,8.16
2022-11-20T15:36:18.666Z,8.13
2022-11-20T15:38:46.987Z,8.06
2022-11-20T15:41:15.355Z,7.87
2022-11-20T15:43:43.571Z,7.87
2022-11-20T15:46:15.975Z,7.90
2022-11-20T15:48:48.573Z,7.91
2022-11-20T15:51:27.038Z,7.92
2022-11-20T15:53:57.209Z,7.96
2022-11-20T15:56:25.907Z,7.94
2022-11-20T15:58:54.453Z,7.90
2022-11-20T16:01:24.933Z,7.85
2022-11-20T16:03:53.293Z,7.81
2022-11-20T16:06:21.704Z,7.76
2022-11-20T16:08:49.955Z,7.63
2022-11-20T16:11:19.902Z,7.62
2022-11-20T16:14:05.649Z,7.60
2022-11-20T16:16:36.853Z,7.52
2022-11-20T16:19:07.057Z,7.52
2022-11-20T16:21:38.622Z,7.53
2022-11-20T16:24:09.351Z,7.50
2022-11-20T16:26:37.811Z,7.48
2022-11-20T16:29:07.634Z,7.43
2022-11-20T16:31:37.573Z,7.35
2022-11-20T16:34:11.860Z,7.27
2022-11-20T16:36:42.303Z,7.14
2022-11-20T16:39:10.590Z,7.13
2022-11-20T16:41:38.921Z,7.09
2022-11-20T16:44:10.311Z,7.12
2022-11-20T16:46:41.019Z,7.08
2022-11-20T16:49:14.730Z,6.96
2022-11-20T16:51:43.239Z,6.94
2022-11-20T16:54:16.433Z,6.90
2022-11-20T16:56:48.608Z,6.97
2022-11-20T16:59:17.071Z,6.86
2022-11-20T17:01:46.844Z,6.83
2022-11-20T17:04:15.205Z,6.83
2022-11-20T17:06:45.373Z,6.84
2022-11-20T17:09:13.983Z,6.75
2022-11-20T17:11:42.355Z,6.68
2022-11-20T17:14:12.144Z,6.70
2022-11-20T17:16:40.499Z,6.72
2022-11-20T17:19:12.637Z,6.74
2022-11-20T17:21:41.002Z,6.71
2022-11-20T17:24:12.110Z,6.68
2022-11-20T17:26:43.000Z,6.72
2022-11-20T17:29:13.842Z,6.66
2022-11-20T17:31:42.663Z,6.60
2022-11-20T17:34:14.815Z,6.55
2022-11-20T17:36:45.818Z,6.50
2022-11-20T17:39:15.590Z,6.44
2022-11-20T17:41:44.063Z,6.43
2022-11-20T17:44:13.621Z,6.39
2022-11-20T17:46:42.349Z,6.36
2022-11-20T17:49:11.941Z,6.34
2022-11-20T17:51:42.110Z,6.30
2022-11-20T17:54:12.623Z,6.25
2022-11-20T17:56:58.159Z,6.23
2022-11-20T17:59:26.475Z,6.22
2022-11-20T18:01:56.778Z,6.20
2022-11-20T18:04:29.360Z,6.17
2022-11-20T18:06:57.642Z,6.20
2022-11-20T18:09:25.843Z,6.21
2022-11-20T18:11:57.528Z,6.22
2022-11-20T18:14:36.558Z,6.26
2022-11-20T18:17:07.680Z,6.28
2022-11-20T18:19:47.730Z,6.31
2022-11-20T18:22:27.848Z,6.36
2022-11-20T18:24:56.193Z,6.35
2022-11-20T18:27:24.903Z,6.35
2022-11-20T18:29:53.549Z,6.41
2022-11-20T18:32:22.828Z,6.43
2022-11-20T18:34:53.028Z,6.50
2022-11-20T18:37:21.531Z,6.53
2022-11-20T18:39:50.572Z,6.55
2022-11-20T18:42:36.562Z,6.56
2022-11-20T18:45:05.930Z,6.55
2022-11-20T18:47:37.604Z,6.57
2022-11-20T18:50:09.996Z,6.58
2022-11-20T18:52:41.241Z,6.54
2022-11-20T18:55:10.168Z,6.53
2022-11-20T18:57:38.422Z,6.57
2022-11-20T19:00:09.658Z,6.55
2022-11-20T19:02:42.488Z,6.60
2022-11-20T19:05:13.475Z,6.54
2022-11-20T19:07:41.886Z,6.56
2022-11-20T19:10:10.498Z,6.59
2022-11-20T19:12:38.791Z,6.61
2022-11-20T19:15:07.875Z,6.63
2022-11-20T19:17:36.113Z,6.61
2022-11-20T19:20:04.571Z,6.57
2022-11-20T19:22:34.236Z,6.58
2022-11-20T19:25:02.492Z,6.64
2022-11-20T19:27:30.740Z,6.58
2022-11-20T19:30:03.237Z,6.53
2022-11-20T19:32:32.657Z,6.40
2022-11-20T19:35:01.022Z,6.46
2022-11-20T19:37:29.256Z,6.49
2022-11-20T19:39:59.826Z,6.52
2022-11-20T19:42:28.249Z,6.52
2022-11-20T19:44:58.150Z,6.51
2022-11-20T19:47:46.084Z,6.55
2022-11-20T19:50:15.994Z,6.57
2022-11-20T19:52:44.176Z,6.59
2022-11-20T19:55:13.980Z,6.53
2022-11-20T19:57:42.245Z,6.46
2022-11-20T20:00:12.420Z,6.50
2022-11-20T20:02:40.876Z,6.43
2022-11-20T20:05:09.453Z,6.38
2022-11-20T20:07:40.313Z,6.41
2022-11-20T20:10:09.728Z,6.50
2022-11-20T20:12:39.338Z,6.57
2022-11-20T20:15:08.893Z,6.60
2022-11-20T20:17:37.077Z,6.66
2022-11-20T20:20:06.172Z,6.66
2022-11-20T20:22:34.415Z,6.70
2022-11-20T20:25:02.736Z,6.76
2022-11-20T20:27:31.903Z,6.78
2022-11-20T20:30:01.554Z,6.83
2022-11-20T20:32:29.783Z,6.78
2022-11-20T20:34:58.132Z,6.80
2022-11-20T20:37:26.537Z,6.83
2022-11-20T20:39:54.806Z,6.75
2022-11-20T20:42:23.097Z,6.78
2022-11-20T20:45:11.241Z,6.79
2022-11-20T20:47:42.187Z,6.84
2022-11-20T20:50:13.265Z,6.87
2022-11-20T20:52:41.845Z,6.93
2022-11-20T20:55:11.162Z,6.87
2022-11-20T20:57:39.482Z,6.87
2022-11-20T21:00:08.869Z,6.91
2022-11-20T21:02:37.111Z,6.91
2022-11-20T21:05:07.496Z,6.91
2022-11-20T21:07:55.722Z,6.96
2022-11-20T21:10:24.275Z,6.99
2022-11-20T21:12:52.536Z,7.00
2022-11-20T21:15:20.824Z,7.02
2022-11-20T21:17:49.091Z,7.03
2022-11-20T21:20:32.793Z,7.02
2022-11-20T21:23:01.138Z,7.01
2022-11-20T21:25:29.564Z,7.01
2022-11-20T21:27:57.933Z,7.01
2022-11-20T21:30:26.127Z,6.96
2022-11-20T21:32:54.352Z,6.94
2022-11-20T21:35:24.160Z,6.91
2022-11-20T21:37:52.326Z,6.90
2022-11-20T21:40:20.608Z,6.90
2022-11-20T21:42:48.912Z,6.89
2022-11-20T21:45:17.277Z,6.89
2022-11-20T21:47:45.479Z,6.89
2022-11-20T21:50:13.770Z,6.85
2022-11-20T21:52:43.403Z,6.84
2022-11-20T21:55:11.687Z,6.82
2022-11-20T21:57:39.907Z,6.82
2022-11-20T22:00:09.423Z,6.81
2022-11-20T22:02:40.791Z,6.76
2022-11-20T22:05:10.093Z,6.71
2022-11-20T22:07:38.315Z,6.66
2022-11-20T22:10:08.675Z,6.61
2022-11-20T22:12:36.893Z,6.57
2022-11-20T22:15:04.676Z,6.59
2022-11-20T22:17:50.140Z,6.58
2022-11-20T22:20:18.651Z,6.54
2022-11-20T22:22:46.928Z,6.51
2022-11-20T22:25:16.786Z,6.42
2022-11-20T22:27:47.619Z,6.34
2022-11-20T22:30:15.926Z,6.28
2022-11-20T22:32:44.379Z,6.22
2022-11-20T22:35:12.638Z,6.13
2022-11-20T22:37:40.928Z,6.10
2022-11-20T22:40:10.543Z,6.06
2022-11-20T22:42:40.199Z,6.02
2022-11-20T22:45:09.582Z,6.00
2022-11-20T22:47:37.887Z,5.99
2022-11-20T22:50:07.023Z,5.97
2022-11-20T22:52:35.316Z,5.96
2022-11-20T22:55:03.560Z,5.97
2022-11-20T22:57:32.900Z,5.97
2022-11-20T23:00:02.518Z,5.96
2022-11-20T23:02:30.831Z,5.97
2022-11-20T23:04:59.019Z,5.97
2022-11-20T23:07:27.331Z,5.98
2022-11-20T23:09:55.587Z,5.99
2022-11-20T23:12:23.926Z,6.00
2022-11-20T23:14:52.166Z,6.01
2022-11-20T23:17:21.789Z,6.01
2022-11-20T23:19:50.073Z,6.00
2022-11-20T23:22:18.349Z,5.99
2022-11-20T23:24:46.597Z,6.01
2022-11-20T23:27:14.945Z,6.00
2022-11-20T23:29:43.656Z,5.98
2022-11-20T23:32:11.893Z,6.01
2022-11-20T23:34:41.596Z,6.00
2022-11-20T23:37:09.808Z,6.04
2022-11-20T23:39:38.243Z,6.02
2022-11-20T23:42:06.766Z,6.01
2022-11-20T23:44:35.109Z,6.02
2022-11-20T23:47:03.373Z,5.99
2022-11-20T23:49:31.610Z,5.96
2022-11-20T23:52:01.283Z,5.95
2022-11-20T23:54:29.826Z,5.93
2022-11-20T23:56:58.095Z,5.91
2022-11-20T23:59:26.473Z,5.91
